sensor_id;sensor_type;location;lat;lon;timestamp;temperature;humidity
60455;DHT22;54989;53.398;6.564;2022-12-07T00:01:24;20.10;53.20
60455;DHT22;54989;53.398;6.564;2022-12-07T00:03:54;20.10;53.10
60455;DHT22;54989;53.398;6.564;2022-12-07T00:06:24;20.10;53.00
60455;DHT22;54989;53.398;6.564;2022-12-07T00:08:51;20.10;53.10
60455;DHT22;54989;53.398;6.564;2022-12-07T00:11:20;20.10;53.10
60455;DHT22;54989;53.398;6.564;2022-12-07T00:13:52;20.10;53.10
60455;DHT22;54989;53.398;6.564;2022-12-07T00:16:21;20.10;53.00
60455;DHT22;54989;53.398;6.564;2022-12-07T00:18:49;20.10;53.10
60455;DHT22;54989;53.398;6.564;2022-12-07T00:21:19;20.10;53.10
60455;DHT22;54989;53.398;6.564;2022-12-07T00:23:47;20.10;53.10
60455;DHT22;54989;53.398;6.564;2022-12-07T00:26:20;20.00;53.10
60455;DHT22;54989;53.398;6.564;2022-12-07T00:28:50;20.10;53.10
60455;DHT22;54989;53.398;6.564;2022-12-07T00:31:20;20.00;53.10
60455;DHT22;54989;53.398;6.564;2022-12-07T00:33:48;20.00;53.10
60455;DHT22;54989;53.398;6.564;2022-12-07T00:36:20;20.00;53.10
60455;DHT22;54989;53.398;6.564;2022-12-07T00:38:54;20.00;53.00
60455;DHT22;54989;53.398;6.564;2022-12-07T00:41:23;20.00;53.00
60455;DHT22;54989;53.398;6.564;2022-12-07T00:43:51;20.00;53.00
60455;DHT22;54989;53.398;6.564;2022-12-07T00:46:19;20.00;53.00
60455;DHT22;54989;53.398;6.564;2022-12-07T00:48:48;20.00;53.10
60455;DHT22;54989;53.398;6.564;2022-12-07T00:51:18;20.00;53.00
60455;DHT22;54989;53.398;6.564;2022-12-07T00:53:46;20.00;53.00
60455;DHT22;54989;53.398;6.564;2022-12-07T00:56:19;19.90;53.00
60455;DHT22;54989;53.398;6.564;2022-12-07T00:58:54;19.90;53.00
60455;DHT22;54989;53.398;6.564;2022-12-07T01:01:24;19.90;53.10
60455;DHT22;54989;53.398;6.564;2022-12-07T01:03:52;19.90;53.10
60455;DHT22;54989;53.398;6.564;2022-12-07T01:06:20;19.90;53.10
60455;DHT22;54989;53.398;6.564;2022-12-07T01:08:49;19.90;53.20
60455;DHT22;54989;53.398;6.564;2022-12-07T01:11:18;19.80;53.10
60455;DHT22;54989;53.398;6.564;2022-12-07T01:13:46;19.80;53.10
60455;DHT22;54989;53.398;6.564;2022-12-07T01:16:15;19.80;53.20
60455;DHT22;54989;53.398;6.564;2022-12-07T01:18:46;19.80;53.20
60455;DHT22;54989;53.398;6.564;2022-12-07T01:21:16;19.80;53.20
60455;DHT22;54989;53.398;6.564;2022-12-07T01:23:44;19.80;53.20
60455;DHT22;54989;53.398;6.564;2022-12-07T01:26:14;19.80;53.20
60455;DHT22;54989;53.398;6.564;2022-12-07T01:28:43;19.80;53.20
60455;DHT22;54989;53.398;6.564;2022-12-07T01:31:15;19.80;53.20
60455;DHT22;54989;53.398;6.564;2022-12-07T01:33:48;19.80;53.10
60455;DHT22;54989;53.398;6.564;2022-12-07T01:36:24;19.70;53.10
60455;DHT22;54989;53.398;6.564;2022-12-07T01:38:56;19.70;53.10
60455;DHT22;54989;53.398;6.564;2022-12-07T01:41:26;19.70;53.10
60455;DHT22;54989;53.398;6.564;2022-12-07T01:47:03;19.70;53.80
60455;DHT22;54989;53.398;6.564;2022-12-07T01:49:41;19.60;53.10
60455;DHT22;54989;53.398;6.564;2022-12-07T01:54:53;19.60;53.30
60455;DHT22;54989;53.398;6.564;2022-12-07T01:57:21;19.60;53.30
60455;DHT22;54989;53.398;6.564;2022-12-07T01:59:51;19.60;53.20
60455;DHT22;54989;53.398;6.564;2022-12-07T02:02:22;19.60;53.30
60455;DHT22;54989;53.398;6.564;2022-12-07T02:04:52;19.60;53.30
60455;DHT22;54989;53.398;6.564;2022-12-07T02:07:21;19.60;53.30
60455;DHT22;54989;53.398;6.564;2022-12-07T02:09:49;19.60;53.40
60455;DHT22;54989;53.398;6.564;2022-12-07T02:12:17;19.50;53.30
60455;DHT22;54989;53.398;6.564;2022-12-07T02:14:45;19.50;53.40
60455;DHT22;54989;53.398;6.564;2022-12-07T02:20:01;19.50;53.40
60455;DHT22;54989;53.398;6.564;2022-12-07T02:31:37;19.50;53.30
60455;DHT22;54989;53.398;6.564;2022-12-07T02:37:11;19.40;53.40
60455;DHT22;54989;53.398;6.564;2022-12-07T02:39:44;19.40;53.50
60455;DHT22;54989;53.398;6.564;2022-12-07T02:42:17;19.40;53.50
60455;DHT22;54989;53.398;6.564;2022-12-07T02:44:46;19.40;53.50
60455;DHT22;54989;53.398;6.564;2022-12-07T02:47:16;19.40;53.50
60455;DHT22;54989;53.398;6.564;2022-12-07T02:49:46;19.40;53.50
60455;DHT22;54989;53.398;6.564;2022-12-07T02:52:13;19.40;53.50
60455;DHT22;54989;53.398;6.564;2022-12-07T02:54:41;19.40;53.40
60455;DHT22;54989;53.398;6.564;2022-12-07T02:57:36;19.40;53.40
60455;DHT22;54989;53.398;6.564;2022-12-07T03:00:10;19.40;53.40
60455;DHT22;54989;53.398;6.564;2022-12-07T03:02:52;19.40;53.40
60455;DHT22;54989;53.398;6.564;2022-12-07T03:05:43;19.30;53.40
60455;DHT22;54989;53.398;6.564;2022-12-07T03:11:09;19.30;53.50
60455;DHT22;54989;53.398;6.564;2022-12-07T03:13:39;19.30;53.50
60455;DHT22;54989;53.398;6.564;2022-12-07T03:19:15;19.20;53.50
60455;DHT22;54989;53.398;6.564;2022-12-07T03:21:49;19.30;53.40
60455;DHT22;54989;53.398;6.564;2022-12-07T03:24:22;19.20;53.30
60455;DHT22;54989;53.398;6.564;2022-12-07T03:26:55;19.20;53.30
60455;DHT22;54989;53.398;6.564;2022-12-07T03:29:28;19.20;53.40
60455;DHT22;54989;53.398;6.564;2022-12-07T03:32:04;19.20;53.40
60455;DHT22;54989;53.398;6.564;2022-12-07T03:35:01;19.20;53.40
60455;DHT22;54989;53.398;6.564;2022-12-07T03:37:54;19.10;53.40
60455;DHT22;54989;53.398;6.564;2022-12-07T03:40:36;19.20;53.50
60455;DHT22;54989;53.398;6.564;2022-12-07T03:43:05;19.10;53.50
60455;DHT22;54989;53.398;6.564;2022-12-07T03:45:42;19.10;53.50
60455;DHT22;54989;53.398;6.564;2022-12-07T03:48:32;19.10;53.50
60455;DHT22;54989;53.398;6.564;2022-12-07T03:51:09;19.10;53.50
60455;DHT22;54989;53.398;6.564;2022-12-07T03:53:44;19.10;54.20
60455;DHT22;54989;53.398;6.564;2022-12-07T03:56:13;19.00;53.50
60455;DHT22;54989;53.398;6.564;2022-12-07T03:58:41;19.00;53.60
60455;DHT22;54989;53.398;6.564;2022-12-07T04:01:09;19.00;53.60
60455;DHT22;54989;53.398;6.564;2022-12-07T04:03:37;19.00;53.50
60455;DHT22;54989;53.398;6.564;2022-12-07T04:06:04;19.00;53.50
60455;DHT22;54989;53.398;6.564;2022-12-07T04:08:32;19.00;53.60
60455;DHT22;54989;53.398;6.564;2022-12-07T04:10:59;19.00;53.60
60455;DHT22;54989;53.398;6.564;2022-12-07T04:13:26;19.00;53.70
60455;DHT22;54989;53.398;6.564;2022-12-07T04:15:53;18.90;53.60
60455;DHT22;54989;53.398;6.564;2022-12-07T04:18:21;18.90;53.70
60455;DHT22;54989;53.398;6.564;2022-12-07T04:20:48;19.00;53.70
60455;DHT22;54989;53.398;6.564;2022-12-07T04:23:15;19.00;53.50
60455;DHT22;54989;53.398;6.564;2022-12-07T04:25:43;19.00;53.50
60455;DHT22;54989;53.398;6.564;2022-12-07T04:28:10;18.90;53.40
60455;DHT22;54989;53.398;6.564;2022-12-07T04:30:37;18.90;53.30
60455;DHT22;54989;53.398;6.564;2022-12-07T04:33:04;18.90;53.40
60455;DHT22;54989;53.398;6.564;2022-12-07T04:35:32;18.90;53.50
60455;DHT22;54989;53.398;6.564;2022-12-07T04:37:59;18.90;53.50
60455;DHT22;54989;53.398;6.564;2022-12-07T04:40:26;18.90;53.60
60455;DHT22;54989;53.398;6.564;2022-12-07T04:42:53;18.80;53.60
60455;DHT22;54989;53.398;6.564;2022-12-07T04:45:20;18.80;53.70
60455;DHT22;54989;53.398;6.564;2022-12-07T04:47:48;18.80;53.70
60455;DHT22;54989;53.398;6.564;2022-12-07T04:50:15;18.80;53.70
60455;DHT22;54989;53.398;6.564;2022-12-07T04:52:42;18.80;53.70
60455;DHT22;54989;53.398;6.564;2022-12-07T04:55:10;18.80;53.70
60455;DHT22;54989;53.398;6.564;2022-12-07T04:57:37;18.80;53.70
60455;DHT22;54989;53.398;6.564;2022-12-07T05:00:05;18.80;53.70
60455;DHT22;54989;53.398;6.564;2022-12-07T05:02:32;18.80;53.70
60455;DHT22;54989;53.398;6.564;2022-12-07T05:05:00;18.80;53.70
60455;DHT22;54989;53.398;6.564;2022-12-07T05:07:27;18.80;53.70
60455;DHT22;54989;53.398;6.564;2022-12-07T05:09:54;18.70;53.60
60455;DHT22;54989;53.398;6.564;2022-12-07T05:12:21;18.70;53.60
60455;DHT22;54989;53.398;6.564;2022-12-07T05:14:49;18.70;53.70
60455;DHT22;54989;53.398;6.564;2022-12-07T05:17:16;18.70;53.60
60455;DHT22;54989;53.398;6.564;2022-12-07T05:19:43;18.70;53.60
60455;DHT22;54989;53.398;6.564;2022-12-07T05:22:11;18.70;53.60
60455;DHT22;54989;53.398;6.564;2022-12-07T05:24:38;18.70;53.60
60455;DHT22;54989;53.398;6.564;2022-12-07T05:27:05;18.70;53.60
60455;DHT22;54989;53.398;6.564;2022-12-07T05:29:34;18.70;53.70
60455;DHT22;54989;53.398;6.564;2022-12-07T05:32:01;18.70;53.60
60455;DHT22;54989;53.398;6.564;2022-12-07T05:34:28;18.60;53.50
60455;DHT22;54989;53.398;6.564;2022-12-07T05:36:55;18.60;53.60
60455;DHT22;54989;53.398;6.564;2022-12-07T05:39:23;18.60;53.60
60455;DHT22;54989;53.398;6.564;2022-12-07T05:41:50;18.60;53.70
60455;DHT22;54989;53.398;6.564;2022-12-07T05:44:36;18.70;53.80
60455;DHT22;54989;53.398;6.564;2022-12-07T05:47:03;18.60;53.70
60455;DHT22;54989;53.398;6.564;2022-12-07T05:49:31;18.60;53.70
60455;DHT22;54989;53.398;6.564;2022-12-07T05:51:58;18.60;53.80
60455;DHT22;54989;53.398;6.564;2022-12-07T05:54:26;18.60;53.70
60455;DHT22;54989;53.398;6.564;2022-12-07T05:56:53;18.50;53.60
60455;DHT22;54989;53.398;6.564;2022-12-07T05:59:21;18.50;53.60
60455;DHT22;54989;53.398;6.564;2022-12-07T06:01:53;18.50;53.60
60455;DHT22;54989;53.398;6.564;2022-12-07T06:04:22;18.50;53.70
60455;DHT22;54989;53.398;6.564;2022-12-07T06:06:50;18.50;53.70
60455;DHT22;54989;53.398;6.564;2022-12-07T06:09:19;18.50;53.70
60455;DHT22;54989;53.398;6.564;2022-12-07T06:11:46;18.40;53.60
60455;DHT22;54989;53.398;6.564;2022-12-07T06:14:32;18.50;53.70
60455;DHT22;54989;53.398;6.564;2022-12-07T06:17:00;18.50;53.60
60455;DHT22;54989;53.398;6.564;2022-12-07T06:19:27;18.50;53.60
60455;DHT22;54989;53.398;6.564;2022-12-07T06:21:55;18.50;53.50
60455;DHT22;54989;53.398;6.564;2022-12-07T06:24:23;18.50;53.50
60455;DHT22;54989;53.398;6.564;2022-12-07T06:26:50;18.50;53.50
60455;DHT22;54989;53.398;6.564;2022-12-07T06:29:18;18.50;53.50
60455;DHT22;54989;53.398;6.564;2022-12-07T06:31:46;18.50;53.50
60455;DHT22;54989;53.398;6.564;2022-12-07T06:34:16;18.50;53.50
60455;DHT22;54989;53.398;6.564;2022-12-07T06:36:43;18.50;53.50
60455;DHT22;54989;53.398;6.564;2022-12-07T06:39:11;18.50;53.50
60455;DHT22;54989;53.398;6.564;2022-12-07T06:41:39;18.50;53.50
60455;DHT22;54989;53.398;6.564;2022-12-07T06:44:07;18.50;53.50
60455;DHT22;54989;53.398;6.564;2022-12-07T06:46:34;18.50;53.50
60455;DHT22;54989;53.398;6.564;2022-12-07T06:49:05;18.50;53.50
60455;DHT22;54989;53.398;6.564;2022-12-07T06:51:33;18.50;53.50
60455;DHT22;54989;53.398;6.564;2022-12-07T06:54:04;18.50;53.50
60455;DHT22;54989;53.398;6.564;2022-12-07T06:56:31;18.50;53.50
60455;DHT22;54989;53.398;6.564;2022-12-07T06:58:58;18.50;53.50
60455;DHT22;54989;53.398;6.564;2022-12-07T07:01:25;18.50;53.50
60455;DHT22;54989;53.398;6.564;2022-12-07T07:03:53;18.50;53.50
60455;DHT22;54989;53.398;6.564;2022-12-07T07:06:20;18.50;53.50
60455;DHT22;54989;53.398;6.564;2022-12-07T07:08:48;18.50;53.50
60455;DHT22;54989;53.398;6.564;2022-12-07T07:11:15;18.50;53.50
60455;DHT22;54989;53.398;6.564;2022-12-07T07:13:42;18.60;53.50
60455;DHT22;54989;53.398;6.564;2022-12-07T07:16:10;18.60;53.50
60455;DHT22;54989;53.398;6.564;2022-12-07T07:18:38;18.70;53.50
60455;DHT22;54989;53.398;6.564;2022-12-07T07:21:05;18.70;53.40
60455;DHT22;54989;53.398;6.564;2022-12-07T07:23:33;18.70;53.30
60455;DHT22;54989;53.398;6.564;2022-12-07T07:26:00;18.80;53.30
60455;DHT22;54989;53.398;6.564;2022-12-07T07:28:27;18.90;53.20
60455;DHT22;54989;53.398;6.564;2022-12-07T07:30:54;19.00;53.10
60455;DHT22;54989;53.398;6.564;2022-12-07T07:33:22;19.30;53.10
60455;DHT22;54989;53.398;6.564;2022-12-07T07:35:49;19.50;52.80
60455;DHT22;54989;53.398;6.564;2022-12-07T07:38:17;19.70;52.80
60455;DHT22;54989;53.398;6.564;2022-12-07T07:40:44;19.80;52.40
60455;DHT22;54989;53.398;6.564;2022-12-07T07:43:11;20.00;52.30
60455;DHT22;54989;53.398;6.564;2022-12-07T07:45:39;20.10;52.10
60455;DHT22;54989;53.398;6.564;2022-12-07T07:48:07;20.20;51.90
60455;DHT22;54989;53.398;6.564;2022-12-07T07:50:34;20.30;51.80
60455;DHT22;54989;53.398;6.564;2022-12-07T07:53:01;20.50;51.60
60455;DHT22;54989;53.398;6.564;2022-12-07T07:55:29;20.60;51.40
60455;DHT22;54989;53.398;6.564;2022-12-07T07:57:56;20.70;51.30
60455;DHT22;54989;53.398;6.564;2022-12-07T08:00:24;20.70;51.20
60455;DHT22;54989;53.398;6.564;2022-12-07T08:02:52;20.80;51.10
60455;DHT22;54989;53.398;6.564;2022-12-07T08:05:19;21.00;50.80
60455;DHT22;54989;53.398;6.564;2022-12-07T08:07:46;21.10;50.70
60455;DHT22;54989;53.398;6.564;2022-12-07T08:10:14;21.20;50.50
60455;DHT22;54989;53.398;6.564;2022-12-07T08:12:42;21.30;50.30
60455;DHT22;54989;53.398;6.564;2022-12-07T08:15:30;21.50;50.20
60455;DHT22;54989;53.398;6.564;2022-12-07T08:17:58;21.60;50.10
60455;DHT22;54989;53.398;6.564;2022-12-07T08:20:26;21.60;49.90
60455;DHT22;54989;53.398;6.564;2022-12-07T08:22:53;21.70;49.70
60455;DHT22;54989;53.398;6.564;2022-12-07T08:25:21;21.80;50.00
60455;DHT22;54989;53.398;6.564;2022-12-07T08:27:51;21.80;49.80
60455;DHT22;54989;53.398;6.564;2022-12-07T08:30:19;21.90;49.80
60455;DHT22;54989;53.398;6.564;2022-12-07T08:32:48;21.90;49.70
60455;DHT22;54989;53.398;6.564;2022-12-07T08:35:15;22.00;49.70
60455;DHT22;54989;53.398;6.564;2022-12-07T08:37:43;22.00;49.60
60455;DHT22;54989;53.398;6.564;2022-12-07T08:40:12;22.10;49.60
60455;DHT22;54989;53.398;6.564;2022-12-07T08:42:43;22.20;49.50
60455;DHT22;54989;53.398;6.564;2022-12-07T08:45:16;22.20;49.50
60455;DHT22;54989;53.398;6.564;2022-12-07T08:47:57;22.30;49.20
60455;DHT22;54989;53.398;6.564;2022-12-07T08:50:26;22.40;49.00
60455;DHT22;54989;53.398;6.564;2022-12-07T08:52:57;22.40;49.00
60455;DHT22;54989;53.398;6.564;2022-12-07T08:55:25;22.40;49.30
60455;DHT22;54989;53.398;6.564;2022-12-07T08:57:53;22.50;49.10
60455;DHT22;54989;53.398;6.564;2022-12-07T09:00:20;22.50;49.10
60455;DHT22;54989;53.398;6.564;2022-12-07T09:02:48;22.50;48.90
60455;DHT22;54989;53.398;6.564;2022-12-07T09:05:15;22.50;49.20
60455;DHT22;54989;53.398;6.564;2022-12-07T09:07:45;22.50;49.00
60455;DHT22;54989;53.398;6.564;2022-12-07T09:10:13;22.60;49.10
60455;DHT22;54989;53.398;6.564;2022-12-07T09:12:40;22.60;49.10
60455;DHT22;54989;53.398;6.564;2022-12-07T09:15:08;22.60;49.00
60455;DHT22;54989;53.398;6.564;2022-12-07T09:17:35;22.60;49.00
60455;DHT22;54989;53.398;6.564;2022-12-07T09:20:05;22.50;48.90
60455;DHT22;54989;53.398;6.564;2022-12-07T09:22:33;22.50;49.00
60455;DHT22;54989;53.398;6.564;2022-12-07T09:25:02;22.50;48.90
60455;DHT22;54989;53.398;6.564;2022-12-07T09:27:30;22.40;48.90
60455;DHT22;54989;53.398;6.564;2022-12-07T09:29:57;22.40;49.00
60455;DHT22;54989;53.398;6.564;2022-12-07T09:32:25;22.40;49.00
60455;DHT22;54989;53.398;6.564;2022-12-07T09:34:52;22.40;49.10
60455;DHT22;54989;53.398;6.564;2022-12-07T09:37:20;22.30;49.20
60455;DHT22;54989;53.398;6.564;2022-12-07T09:39:48;22.30;49.20
60455;DHT22;54989;53.398;6.564;2022-12-07T09:42:29;22.20;49.30
60455;DHT22;54989;53.398;6.564;2022-12-07T09:44:58;22.20;49.30
60455;DHT22;54989;53.398;6.564;2022-12-07T09:47:26;22.10;49.30
60455;DHT22;54989;53.398;6.564;2022-12-07T09:50:00;22.10;49.40
60455;DHT22;54989;53.398;6.564;2022-12-07T09:52:30;22.00;49.50
60455;DHT22;54989;53.398;6.564;2022-12-07T09:55:14;22.00;49.60
60455;DHT22;54989;53.398;6.564;2022-12-07T09:57:42;21.90;49.60
60455;DHT22;54989;53.398;6.564;2022-12-07T10:00:16;21.90;49.90
60455;DHT22;54989;53.398;6.564;2022-12-07T10:02:48;21.80;50.00
60455;DHT22;54989;53.398;6.564;2022-12-07T10:05:21;21.80;50.00
60455;DHT22;54989;53.398;6.564;2022-12-07T10:07:50;21.80;50.10
60455;DHT22;54989;53.398;6.564;2022-12-07T10:10:26;21.70;50.10
60455;DHT22;54989;53.398;6.564;2022-12-07T10:13:05;21.70;50.10
60455;DHT22;54989;53.398;6.564;2022-12-07T10:18:18;21.70;50.20
60455;DHT22;54989;53.398;6.564;2022-12-07T10:20:47;21.70;50.30
60455;DHT22;54989;53.398;6.564;2022-12-07T10:23:17;21.60;50.30
60455;DHT22;54989;53.398;6.564;2022-12-07T10:25:45;21.60;50.30
60455;DHT22;54989;53.398;6.564;2022-12-07T10:28:18;21.60;50.60
60455;DHT22;54989;53.398;6.564;2022-12-07T10:30:58;21.60;51.10
60455;DHT22;54989;53.398;6.564;2022-12-07T10:33:53;21.50;50.40
60455;DHT22;54989;53.398;6.564;2022-12-07T10:36:24;21.50;50.50
60455;DHT22;54989;53.398;6.564;2022-12-07T10:39:03;21.40;50.60
60455;DHT22;54989;53.398;6.564;2022-12-07T10:42:02;21.40;50.60
60455;DHT22;54989;53.398;6.564;2022-12-07T10:44:32;21.40;50.60
60455;DHT22;54989;53.398;6.564;2022-12-07T10:50:13;21.30;50.70
60455;DHT22;54989;53.398;6.564;2022-12-07T11:18:59;21.00;51.30
60455;DHT22;54989;53.398;6.564;2022-12-07T11:24:25;20.90;51.40
60455;DHT22;54989;53.398;6.564;2022-12-07T11:27:09;20.90;51.40
60455;DHT22;54989;53.398;6.564;2022-12-07T11:37:19;20.80;51.50
60455;DHT22;54989;53.398;6.564;2022-12-07T11:39:55;20.70;51.40
60455;DHT22;54989;53.398;6.564;2022-12-07T11:42:29;20.70;51.50
60455;DHT22;54989;53.398;6.564;2022-12-07T11:44:57;20.70;51.50
60455;DHT22;54989;53.398;6.564;2022-12-07T11:48:02;20.70;51.50
60455;DHT22;54989;53.398;6.564;2022-12-07T11:50:51;20.60;51.60
60455;DHT22;54989;53.398;6.564;2022-12-07T11:53:20;20.50;51.60
60455;DHT22;54989;53.398;6.564;2022-12-07T12:04:23;20.50;51.60
60455;DHT22;54989;53.398;6.564;2022-12-07T12:06:51;20.50;51.70
60455;DHT22;54989;53.398;6.564;2022-12-07T12:09:42;20.50;51.60
60455;DHT22;54989;53.398;6.564;2022-12-07T12:12:26;20.50;51.70
60455;DHT22;54989;53.398;6.564;2022-12-07T12:15:37;20.40;51.70
60455;DHT22;54989;53.398;6.564;2022-12-07T12:18:12;20.40;51.90
60455;DHT22;54989;53.398;6.564;2022-12-07T12:20:52;20.40;51.80
60455;DHT22;54989;53.398;6.564;2022-12-07T12:23:45;20.30;51.80
60455;DHT22;54989;53.398;6.564;2022-12-07T12:26:18;20.30;51.80
60455;DHT22;54989;53.398;6.564;2022-12-07T12:28:59;20.30;51.90
60455;DHT22;54989;53.398;6.564;2022-12-07T12:33:57;20.20;51.80
60455;DHT22;54989;53.398;6.564;2022-12-07T12:46:58;20.20;51.80
60455;DHT22;54989;53.398;6.564;2022-12-07T12:51:58;20.10;51.80
60455;DHT22;54989;53.398;6.564;2022-12-07T12:54:31;20.10;51.70
60455;DHT22;54989;53.398;6.564;2022-12-07T13:04:56;20.10;51.80
60455;DHT22;54989;53.398;6.564;2022-12-07T13:29:15;19.80;52.10
60455;DHT22;54989;53.398;6.564;2022-12-07T13:31:56;19.80;52.20
60455;DHT22;54989;53.398;6.564;2022-12-07T13:36:54;19.70;52.20
60455;DHT22;54989;53.398;6.564;2022-12-07T13:39:23;19.70;52.20
60455;DHT22;54989;53.398;6.564;2022-12-07T13:41:57;19.60;52.20
60455;DHT22;54989;53.398;6.564;2022-12-07T13:44:26;19.70;52.30
60455;DHT22;54989;53.398;6.564;2022-12-07T13:46:59;19.60;52.30
60455;DHT22;54989;53.398;6.564;2022-12-07T13:49:30;19.60;52.30
60455;DHT22;54989;53.398;6.564;2022-12-07T13:52:30;19.60;52.30
60455;DHT22;54989;53.398;6.564;2022-12-07T13:54:58;19.60;52.30
60455;DHT22;54989;53.398;6.564;2022-12-07T13:57:29;19.60;52.30
60455;DHT22;54989;53.398;6.564;2022-12-07T14:00:13;19.60;52.30
60455;DHT22;54989;53.398;6.564;2022-12-07T14:03:01;19.60;52.30
60455;DHT22;54989;53.398;6.564;2022-12-07T14:05:30;19.60;52.40
60455;DHT22;54989;53.398;6.564;2022-12-07T14:10:32;19.50;52.40
60455;DHT22;54989;53.398;6.564;2022-12-07T14:13:01;19.50;52.40
60455;DHT22;54989;53.398;6.564;2022-12-07T14:15:33;19.60;52.30
60455;DHT22;54989;53.398;6.564;2022-12-07T14:18:02;19.60;52.30
60455;DHT22;54989;53.398;6.564;2022-12-07T14:20:40;19.60;52.50
60455;DHT22;54989;53.398;6.564;2022-12-07T14:23:24;19.50;52.60
60455;DHT22;54989;53.398;6.564;2022-12-07T14:25:53;19.50;52.60
60455;DHT22;54989;53.398;6.564;2022-12-07T14:28:30;19.40;52.50
60455;DHT22;54989;53.398;6.564;2022-12-07T14:30:58;19.40;52.60
60455;DHT22;54989;53.398;6.564;2022-12-07T14:33:26;19.40;52.60
60455;DHT22;54989;53.398;6.564;2022-12-07T14:35:54;19.50;52.60
60455;DHT22;54989;53.398;6.564;2022-12-07T14:38:23;19.50;52.60
60455;DHT22;54989;53.398;6.564;2022-12-07T14:40:55;19.60;52.30
60455;DHT22;54989;53.398;6.564;2022-12-07T14:43:42;19.60;52.20
60455;DHT22;54989;53.398;6.564;2022-12-07T14:46:30;19.60;52.10
60455;DHT22;54989;53.398;6.564;2022-12-07T14:48:57;19.70;52.10
60455;DHT22;54989;53.398;6.564;2022-12-07T14:51:46;19.60;52.00
60455;DHT22;54989;53.398;6.564;2022-12-07T14:54:34;19.70;52.00
60455;DHT22;54989;53.398;6.564;2022-12-07T14:57:01;19.70;52.00
60455;DHT22;54989;53.398;6.564;2022-12-07T14:59:29;19.60;52.00
60455;DHT22;54989;53.398;6.564;2022-12-07T15:01:56;19.60;52.00
60455;DHT22;54989;53.398;6.564;2022-12-07T15:04:23;19.70;52.10
60455;DHT22;54989;53.398;6.564;2022-12-07T15:06:59;19.60;52.10
60455;DHT22;54989;53.398;6.564;2022-12-07T15:09:27;19.60;52.10
60455;DHT22;54989;53.398;6.564;2022-12-07T15:11:54;19.60;52.20
60455;DHT22;54989;53.398;6.564;2022-12-07T15:14:21;19.50;52.20
60455;DHT22;54989;53.398;6.564;2022-12-07T15:16:49;19.50;52.20
60455;DHT22;54989;53.398;6.564;2022-12-07T15:19:35;19.50;52.20
60455;DHT22;54989;53.398;6.564;2022-12-07T15:22:02;19.50;52.30
60455;DHT22;54989;53.398;6.564;2022-12-07T15:24:29;19.40;52.20
60455;DHT22;54989;53.398;6.564;2022-12-07T15:26:57;19.40;52.30
60455;DHT22;54989;53.398;6.564;2022-12-07T15:29:24;19.40;52.20
60455;DHT22;54989;53.398;6.564;2022-12-07T15:31:52;19.40;52.30
60455;DHT22;54989;53.398;6.564;2022-12-07T15:34:26;19.40;52.20
60455;DHT22;54989;53.398;6.564;2022-12-07T15:37:05;19.40;52.30
60455;DHT22;54989;53.398;6.564;2022-12-07T15:39:33;19.40;52.40
60455;DHT22;54989;53.398;6.564;2022-12-07T15:42:01;19.40;52.40
60455;DHT22;54989;53.398;6.564;2022-12-07T15:44:28;19.40;52.50
60455;DHT22;54989;53.398;6.564;2022-12-07T15:47:14;19.40;52.40
60455;DHT22;54989;53.398;6.564;2022-12-07T15:49:41;19.30;52.50
60455;DHT22;54989;53.398;6.564;2022-12-07T15:52:09;19.30;52.50
60455;DHT22;54989;53.398;6.564;2022-12-07T15:54:36;19.30;52.60
60455;DHT22;54989;53.398;6.564;2022-12-07T15:57:03;19.30;52.60
60455;DHT22;54989;53.398;6.564;2022-12-07T15:59:31;19.40;52.50
60455;DHT22;54989;53.398;6.564;2022-12-07T16:01:58;19.40;52.40
60455;DHT22;54989;53.398;6.564;2022-12-07T16:04:27;19.40;52.30
60455;DHT22;54989;53.398;6.564;2022-12-07T16:06:56;19.40;52.20
60455;DHT22;54989;53.398;6.564;2022-12-07T16:09:23;19.50;52.20
60455;DHT22;54989;53.398;6.564;2022-12-07T16:11:51;19.50;52.20
60455;DHT22;54989;53.398;6.564;2022-12-07T16:14:19;19.50;52.20
60455;DHT22;54989;53.398;6.564;2022-12-07T16:16:47;19.50;52.10
60455;DHT22;54989;53.398;6.564;2022-12-07T16:19:15;19.50;52.10
60455;DHT22;54989;53.398;6.564;2022-12-07T16:21:43;19.50;52.10
60455;DHT22;54989;53.398;6.564;2022-12-07T16:24:10;19.50;52.10
60455;DHT22;54989;53.398;6.564;2022-12-07T16:26:37;19.50;52.00
60455;DHT22;54989;53.398;6.564;2022-12-07T16:29:05;19.50;52.20
60455;DHT22;54989;53.398;6.564;2022-12-07T16:31:32;19.50;52.20
60455;DHT22;54989;53.398;6.564;2022-12-07T16:34:00;19.50;52.30
60455;DHT22;54989;53.398;6.564;2022-12-07T16:36:28;19.50;52.20
60455;DHT22;54989;53.398;6.564;2022-12-07T16:39:15;19.50;52.30
60455;DHT22;54989;53.398;6.564;2022-12-07T16:41:42;19.50;52.30
60455;DHT22;54989;53.398;6.564;2022-12-07T16:44:11;19.50;52.30
60455;DHT22;54989;53.398;6.564;2022-12-07T16:46:40;19.50;52.20
60455;DHT22;54989;53.398;6.564;2022-12-07T16:49:12;19.50;52.20
60455;DHT22;54989;53.398;6.564;2022-12-07T16:51:39;19.50;52.20
60455;DHT22;54989;53.398;6.564;2022-12-07T16:54:11;19.50;52.10
60455;DHT22;54989;53.398;6.564;2022-12-07T16:56:39;19.60;52.20
60455;DHT22;54989;53.398;6.564;2022-12-07T16:59:07;19.60;52.10
60455;DHT22;54989;53.398;6.564;2022-12-07T17:01:34;19.60;52.10
60455;DHT22;54989;53.398;6.564;2022-12-07T17:04:03;19.60;52.10
60455;DHT22;54989;53.398;6.564;2022-12-07T17:06:31;19.60;52.10
60455;DHT22;54989;53.398;6.564;2022-12-07T17:08:59;19.60;52.00
60455;DHT22;54989;53.398;6.564;2022-12-07T17:11:28;19.60;51.90
60455;DHT22;54989;53.398;6.564;2022-12-07T17:13:57;19.60;51.90
60455;DHT22;54989;53.398;6.564;2022-12-07T17:16:43;19.60;52.30
60455;DHT22;54989;53.398;6.564;2022-12-07T17:19:15;19.60;52.10
60455;DHT22;54989;53.398;6.564;2022-12-07T17:21:43;19.60;52.10
60455;DHT22;54989;53.398;6.564;2022-12-07T17:24:13;19.50;52.20
60455;DHT22;54989;53.398;6.564;2022-12-07T17:26:41;19.60;52.10
60455;DHT22;54989;53.398;6.564;2022-12-07T17:29:11;19.60;52.10
60455;DHT22;54989;53.398;6.564;2022-12-07T17:31:39;19.60;52.00
60455;DHT22;54989;53.398;6.564;2022-12-07T17:34:12;19.70;52.00
60455;DHT22;54989;53.398;6.564;2022-12-07T17:36:41;19.80;52.00
60455;DHT22;54989;53.398;6.564;2022-12-07T17:39:17;19.80;52.60
60455;DHT22;54989;53.398;6.564;2022-12-07T17:41:45;19.80;51.90
60455;DHT22;54989;53.398;6.564;2022-12-07T17:44:32;19.80;52.00
60455;DHT22;54989;53.398;6.564;2022-12-07T17:47:02;19.80;51.90
60455;DHT22;54989;53.398;6.564;2022-12-07T17:49:34;19.80;51.90
60455;DHT22;54989;53.398;6.564;2022-12-07T17:52:03;19.80;51.90
60455;DHT22;54989;53.398;6.564;2022-12-07T17:54:49;19.80;52.00
60455;DHT22;54989;53.398;6.564;2022-12-07T17:57:17;19.80;52.00
60455;DHT22;54989;53.398;6.564;2022-12-07T17:59:44;19.80;51.90
60455;DHT22;54989;53.398;6.564;2022-12-07T18:02:12;19.80;52.00